Time;durP1;ratioP1;P1;durP2;ratioP2;P2;SDS_P1;SDS_P2;PMS_P1;PMS_P2;Temp;Humidity;BMP_temperature;BMP_pressure;BME280_temperature;BME280_humidity;BME280_pressure;Samples;Min_cycle;Max_cycle;Signal;HPM_P1;HPM_P2
2021/01/17 00:01:32;;;;;;;12.60;4.82;;;0.40;1.00;;;;;;5033643;28;20165;-77
2021/01/17 00:10:42;;;;;;;15.13;5.80;;;0.50;1.00;;;;;;5033649;28;20186;-75
2021/01/17 00:13:09;;;;;;;11.70;5.00;;;0.50;1.00;;;;;;5033534;28;20157;-75
2021/01/17 00:15:51;;;;;;;7.93;4.38;;;0.50;1.00;;;;;;5045623;28;20167;-76
2021/01/17 00:18:27;;;;;;;11.52;5.70;;;0.40;1.00;;;;;;5053532;28;20629;-75
2021/01/17 00:21:32;;;;;;;18.20;5.97;;;0.50;1.00;;;;;;5040982;28;20619;-74
2021/01/17 00:34:27;;;;;;;30.98;5.72;;;0.40;1.00;;;;;;5041363;28;20661;-77
2021/01/17 00:41:09;;;;;;;9.77;4.15;;;0.50;1.00;;;;;;5051773;28;20230;-75
2021/01/17 00:44:03;;;;;;;9.00;5.03;;;0.50;1.00;;;;;;5054827;28;20156;-74
2021/01/17 00:46:39;;;;;;;11.77;4.25;;;0.50;1.00;;;;;;5057547;28;20521;-74
2021/01/17 00:49:09;;;;;;;10.73;5.15;;;0.50;1.00;;;;;;5057339;28;20155;-75
2021/01/17 00:51:41;;;;;;;20.48;5.57;;;0.50;1.00;;;;;;5039763;28;20172;-74
2021/01/17 00:54:45;;;;;;;11.93;4.60;;;0.40;1.00;;;;;;5036381;28;20623;-74
2021/01/17 00:57:27;;;;;;;12.43;5.75;;;0.40;1.00;;;;;;5037206;28;20165;-75
2021/01/17 00:59:57;;;;;;;9.15;5.93;;;;;;;;;;5036996;28;20678;-74
2021/01/17 01:02:23;;;;;;;10.32;5.30;;;0.50;1.00;;;;;;5036636;28;20169;-75
2021/01/17 01:04:49;;;;;;;13.13;5.10;;;0.50;1.00;;;;;;5036671;28;20674;-75
2021/01/17 01:07:15;;;;;;;8.93;4.40;;;0.50;1.00;;;;;;5036626;28;20544;-75
2021/01/17 01:13:02;;;;;;;14.07;4.97;;;0.50;1.00;;;;;;5036647;28;20226;-77
2021/01/17 01:18:51;;;;;;;10.68;4.10;;;0.60;1.00;;;;;;5036240;28;20218;-78
2021/01/17 01:21:25;;;;;;;12.95;5.45;;;0.40;1.00;;;;;;5049914;28;20537;-78
2021/01/17 01:24:01;;;;;;;12.68;5.10;;;0.40;1.00;;;;;;5056281;28;20218;-78
2021/01/17 01:26:35;;;;;;;12.27;5.78;;;0.30;1.00;;;;;;5056086;28;20199;-77
2021/01/17 01:29:01;;;;;;;15.73;5.65;;;;;;;;;;5056013;28;20175;-77
2021/01/17 01:31:27;;;;;;;18.77;6.43;;;;;;;;;;5042241;28;20567;-78
2021/01/17 01:37:14;;;;;;;9.27;4.88;;;0.40;1.00;;;;;;5035933;28;20252;-77
2021/01/17 01:40:20;;;;;;;16.63;6.00;;;0.40;1.00;;;;;;5046663;28;20203;-77
2021/01/17 01:46:55;;;;;;;11.93;5.85;;;0.40;1.00;;;;;;5042334;28;20203;-77
2021/01/17 01:50:15;;;;;;;11.55;5.30;;;0.40;1.00;;;;;;5036264;28;20596;-77
2021/01/17 01:56:50;;;;;;;14.75;6.50;;;0.30;1.00;;;;;;5035535;28;20225;-75
2021/01/17 01:59:27;;;;;;;13.10;5.60;;;0.30;1.00;;;;;;5036286;28;20176;-75
2021/01/17 02:01:54;;;;;;;5.10;3.05;;;0.30;1.00;;;;;;5035970;28;20175;-75
2021/01/17 02:04:38;;;;;;;12.93;4.97;;;0.30;1.00;;;;;;5036057;28;20580;-75
2021/01/17 02:07:33;;;;;;;7.55;4.10;;;0.40;1.00;;;;;;5036032;28;20187;-75
2021/01/17 02:17:33;;;;;;;12.27;3.80;;;0.40;1.00;;;;;;5035628;28;20183;-77
2021/01/17 02:20:45;;;;;;;11.68;4.60;;;0.40;1.00;;;;;;5035780;28;20180;-78
2021/01/17 02:26:40;;;;;;;7.90;5.10;;;0.40;1.00;;;;;;5035593;28;20207;-75
2021/01/17 02:29:08;;;;;;;13.07;6.15;;;0.40;1.00;;;;;;5035519;28;20548;-75
2021/01/17 02:31:42;;;;;;;5.43;3.33;;;0.40;1.00;;;;;;5035805;28;20164;-75
2021/01/17 02:34:23;;;;;;;9.55;3.90;;;0.40;1.00;;;;;;5050669;28;20254;-74
2021/01/17 02:37:37;;;;;;;10.65;4.57;;;0.40;1.00;;;;;;5053237;28;20171;-75
2021/01/17 02:40:51;;;;;;;8.52;4.28;;;0.40;1.00;;;;;;5031801;28;20242;-78
2021/01/17 02:46:37;;;;;;;10.95;5.30;;;0.40;1.00;;;;;;5019437;28;20220;-78
2021/01/17 02:55:50;;;;;;;11.07;4.53;;;0.50;1.00;;;;;;5033441;28;20243;-78
2021/01/17 02:58:16;;;;;;;13.35;4.93;;;0.50;1.00;;;;;;5032702;28;20165;-78
2021/01/17 03:04:39;;;;;;;12.75;4.90;;;0.60;1.00;;;;;;5012771;28;20203;-78
2021/01/17 03:10:26;;;;;;;9.52;4.22;;;0.50;1.00;;;;;;5013083;28;20589;-75
2021/01/17 03:12:53;;;;;;;9.47;4.40;;;0.50;1.00;;;;;;5023560;28;20180;-75
2021/01/17 03:15:19;;;;;;;10.25;4.68;;;0.50;1.00;;;;;;5032676;28;20195;-74
2021/01/17 03:17:45;;;;;;;9.40;5.30;;;0.40;1.00;;;;;;5049702;28;20172;-74
2021/01/17 03:20:15;;;;;;;7.00;3.83;;;0.40;1.00;;;;;;5054516;28;20303;-75
2021/01/17 03:26:02;;;;;;;10.00;4.70;;;0.30;1.00;;;;;;5035991;28;20278;-78
2021/01/17 03:35:12;;;;;;;11.43;4.80;;;0.30;1.00;;;;;;5034386;28;20160;-78
2021/01/17 03:38:09;;;;;;;18.43;6.33;;;0.30;1.00;;;;;;5045427;28;20548;-78
2021/01/17 03:43:57;;;;;;;7.53;4.45;;;0.40;1.00;;;;;;5033837;28;20187;-75
2021/01/17 03:46:33;;;;;;;10.80;5.50;;;0.40;1.00;;;;;;5041781;28;20195;-75
2021/01/17 03:49:09;;;;;;;6.82;4.38;;;0.40;1.00;;;;;;5054066;28;20160;-75
2021/01/17 03:51:45;;;;;;;7.93;4.97;;;0.40;1.00;;;;;;5054125;28;20163;-74
2021/01/17 03:54:51;;;;;;;17.67;7.35;;;0.50;1.00;;;;;;5052127;28;20178;-75
2021/01/17 03:57:16;;;;;;;11.15;5.57;;;0.50;1.00;;;;;;5040379;28;20651;-75
2021/01/17 03:59:51;;;;;;;11.00;6.40;;;0.50;1.00;;;;;;5034501;28;20179;-75
2021/01/17 04:02:21;;;;;;;8.93;4.25;;;0.50;1.00;;;;;;5033941;28;20192;-76
2021/01/17 04:08:08;;;;;;;8.10;4.47;;;0.50;1.00;;;;;;5033455;28;20171;-77
2021/01/17 04:13:55;;;;;;;10.18;5.53;;;0.50;1.00;;;;;;5053593;28;20250;-81
2021/01/17 04:19:43;;;;;;;6.38;4.47;;;0.50;1.00;;;;;;5057281;28;20273;-81
2021/01/17 04:25:45;;;;;;;9.30;5.10;;;0.50;1.00;;;;;;5042579;28;20171;-82
2021/01/17 04:32:15;;;;;;;12.35;5.50;;;0.50;1.00;;;;;;5037509;28;20179;-76
2021/01/17 04:35:15;;;;;;;16.83;7.03;;;0.40;1.00;;;;;;5040972;28;20246;-80
2021/01/17 04:38:15;;;;;;;6.13;2.97;;;0.40;1.00;;;;;;5053318;28;20186;-80
2021/01/17 04:44:26;;;;;;;11.90;5.95;;;0.40;1.00;;;;;;5037258;28;20159;-79
2021/01/17 04:50:30;;;;;;;12.10;5.68;;;0.40;1.00;;;;;;5037398;28;20164;-79
2021/01/17 04:53:45;;;;;;;10.57;6.32;;;0.40;1.00;;;;;;5054031;28;20282;-79
2021/01/17 04:56:27;;;;;;;12.35;4.70;;;0.40;1.00;;;;;;5057267;28;20170;-75
2021/01/17 04:59:30;;;;;;;14.20;4.90;;;0.40;1.00;;;;;;5057178;28;20164;-76
2021/01/17 05:02:30;;;;;;;10.10;5.32;;;0.40;1.00;;;;;;5051121;28;20184;-76
2021/01/17 05:05:19;;;;;;;9.52;4.65;;;0.50;1.00;;;;;;5036764;28;20255;-75
2021/01/17 05:08:09;;;;;;;13.40;5.85;;;0.40;1.00;;;;;;5037075;28;20180;-75
2021/01/17 05:10:39;;;;;;;17.75;5.53;;;0.40;1.00;;;;;;5036864;28;20188;-75
2021/01/17 05:13:51;;;;;;;15.57;5.97;;;0.40;1.00;;;;;;5047904;28;20163;-79
2021/01/17 05:19:38;;;;;;;8.20;4.50;;;0.40;1.00;;;;;;5049715;28;20529;-82
2021/01/17 05:22:20;;;;;;;9.43;5.40;;;0.40;1.00;;;;;;5036251;28;20184;-80
2021/01/17 05:28:21;;;;;;;11.70;6.15;;;0.50;1.00;;;;;;5048661;28;20214;-79
2021/01/17 05:37:59;;;;;;;7.97;4.85;;;0.60;1.00;;;;;;5036349;28;20239;-79
2021/01/17 05:40:51;;;;;;;13.20;4.68;;;0.60;1.00;;;;;;5042911;28;20183;-79
2021/01/17 05:46:39;;;;;;;11.65;5.57;;;;;;;;;;5055740;28;20708;-79
2021/01/17 05:52:27;;;;;;;12.02;5.43;;;;;;;;;;5055811;28;21164;-79
2021/01/17 05:58:42;;;;;;;11.13;4.57;;;0.60;1.00;;;;;;5036112;28;20222;-79
2021/01/17 06:01:27;;;;;;;14.48;4.95;;;0.60;1.00;;;;;;5035865;28;20255;-79
2021/01/17 06:03:54;;;;;;;17.85;6.32;;;0.50;1.00;;;;;;5035884;28;20192;-79
2021/01/17 06:06:42;;;;;;;8.25;4.18;;;0.50;1.00;;;;;;5035713;28;20191;-80
2021/01/17 06:09:09;;;;;;;11.15;5.68;;;0.50;1.00;;;;;;5035885;28;20164;-79
2021/01/17 06:11:35;;;;;;;12.13;5.38;;;0.50;1.00;;;;;;5035617;28;20172;-79
2021/01/17 06:14:02;;;;;;;15.80;5.40;;;0.60;1.00;;;;;;5036345;28;20506;-75
2021/01/17 06:16:40;;;;;;;8.32;4.85;;;0.60;1.00;;;;;;5035343;28;20197;-75
2021/01/17 06:19:08;;;;;;;12.02;5.88;;;0.60;1.00;;;;;;5035328;28;20180;-75
2021/01/17 06:21:46;;;;;;;10.95;5.55;;;0.60;1.00;;;;;;5046930;28;20210;-75
2021/01/17 06:24:39;;;;;;;10.75;4.72;;;0.60;1.00;;;;;;5034797;28;20203;-75
2021/01/17 06:30:29;;;;;;;12.75;4.97;;;0.60;1.00;;;;;;5035393;28;20195;-79
2021/01/17 06:36:17;;;;;;;9.93;4.88;;;0.60;1.00;;;;;;5038829;28;20186;-79
2021/01/17 06:38:44;;;;;;;13.93;7.00;;;0.60;1.00;;;;;;5035043;28;20160;-79
2021/01/17 06:41:57;;;;;;;14.52;6.10;;;0.60;1.00;;;;;;5034677;28;20161;-80
2021/01/17 06:47:54;;;;;;;10.63;4.70;;;0.60;1.00;;;;;;5054885;28;20566;-79
2021/01/17 06:53:54;;;;;;;9.73;4.88;;;0.70;1.00;;;;;;5055067;28;20506;-80
2021/01/17 06:57:09;;;;;;;4.35;3.53;;;0.70;1.00;;;;;;5050917;28;20187;-79
2021/01/17 06:59:48;;;;;;;7.55;5.10;;;0.60;1.00;;;;;;5049997;28;20187;-78
2021/01/17 07:03:03;;;;;;;11.50;5.90;;;0.70;1.00;;;;;;5034692;28;20219;-75
2021/01/17 07:09:41;;;;;;;14.35;4.97;;;0.60;1.00;;;;;;5034541;28;20218;-79
2021/01/17 07:15:37;;;;;;;14.73;5.20;;;0.70;1.00;;;;;;5012601;28;20309;-80
2021/01/17 07:18:08;;;;;;;14.55;4.55;;;0.60;1.00;;;;;;5012772;28;20166;-79
2021/01/17 07:21:15;;;;;;;20.73;5.50;;;0.60;1.00;;;;;;5012812;28;20208;-79
2021/01/17 07:27:21;;;;;;;8.35;4.00;;;0.70;1.00;;;;;;5012582;28;20220;-79
2021/01/17 07:37:07;;;;;;;17.13;4.72;;;0.80;1.00;;;;;;5012130;28;20180;-80
2021/01/17 07:43:25;;;;;;;13.57;5.13;;;0.80;1.00;;;;;;5030554;28;20195;-94
2021/01/17 07:46:16;;;;;;;8.25;4.32;;;0.80;1.00;;;;;;5015298;28;20234;-79
2021/01/17 07:55:26;;;;;;;8.15;5.40;;;0.90;1.00;;;;;;5040872;28;20548;-80
2021/01/17 07:58:02;;;;;;;16.55;6.30;;;0.90;1.00;;;;;;5052199;28;20623;-77
2021/01/17 08:00:39;;;;;;;15.25;5.15;;;0.90;1.00;;;;;;5046408;28;20673;-80
2021/01/17 08:03:24;;;;;;;22.48;5.95;;;1.00;1.00;;;;;;5033875;28;20164;-77
2021/01/17 08:09:13;;;;;;;18.30;7.07;;;1.10;1.00;;;;;;5033897;28;20191;-76
2021/01/17 08:22:24;;;;;;;15.05;5.28;;;1.30;1.00;;;;;;5033335;28;20191;-76
2021/01/17 08:25:03;;;;;;;15.05;5.68;;;1.40;1.00;;;;;;4992164;28;20595;-75
2021/01/17 08:30:51;;;;;;;11.05;5.38;;;1.40;1.00;;;;;;5033249;28;20230;-76
2021/01/17 08:36:53;;;;;;;13.20;7.05;;;1.50;1.00;;;;;;5053549;28;20682;-76
2021/01/17 08:40:03;;;;;;;13.10;6.13;;;1.60;1.00;;;;;;5037409;28;20551;-76
2021/01/17 08:43:09;;;;;;;18.50;5.97;;;1.60;1.00;;;;;;5033140;28;20248;-75
2021/01/17 08:45:47;;;;;;;14.13;5.68;;;1.60;1.00;;;;;;5037144;28;20622;-75
2021/01/17 08:52:00;;;;;;;10.00;5.93;;;1.80;1.00;;;;;;5053253;28;20187;-75
2021/01/17 08:54:26;;;;;;;8.45;4.80;;;1.80;1.00;;;;;;5050014;28;20505;-75
2021/01/17 08:57:48;;;;;;;11.23;6.18;;;1.90;1.00;;;;;;5053553;28;20179;-76
2021/01/17 09:00:48;;;;;;;9.50;4.97;;;1.90;1.00;;;;;;5031014;28;20188;-79
2021/01/17 09:03:51;;;;;;;12.60;4.57;;;2.00;1.00;;;;;;4990504;28;20280;-80
2021/01/17 09:06:52;;;;;;;10.73;5.03;;;2.00;1.00;;;;;;4978434;28;20205;-79
2021/01/17 09:10:09;;;;;;;18.27;6.40;;;2.00;1.00;;;;;;4995353;28;20312;-79
2021/01/17 09:16:08;;;;;;;14.18;5.55;;;2.00;1.00;;;;;;4995992;28;20567;-79
2021/01/17 09:21:56;;;;;;;16.08;6.45;;;2.10;1.00;;;;;;4995047;28;20258;-79
2021/01/17 09:31:04;;;;;;;11.32;5.80;;;2.20;1.00;;;;;;4995564;28;20216;-80
2021/01/17 09:33:50;;;;;;;22.40;7.17;;;2.20;1.00;;;;;;4991273;28;20577;-79
2021/01/17 09:46:26;;;;;;;14.25;6.15;;;2.50;1.00;;;;;;5041760;28;20210;-79
2021/01/17 09:49:10;;;;;;;12.20;5.65;;;2.50;1.00;;;;;;5049600;28;20168;-81
2021/01/17 09:51:57;;;;;;;17.40;7.72;;;2.50;1.00;;;;;;5055880;28;20164;-82
2021/01/17 09:54:24;;;;;;;23.27;7.25;;;2.50;1.00;;;;;;5046469;28;20251;-81
2021/01/17 09:57:16;;;;;;;15.93;7.03;;;2.50;1.00;;;;;;5036082;28;20212;-81
2021/01/17 10:03:12;;;;;;;17.00;7.55;;;2.50;1.00;;;;;;5046157;28;20191;-80
2021/01/17 10:06:09;;;;;;;17.63;7.75;;;2.50;1.00;;;;;;5055573;28;20191;-81
2021/01/17 10:12:19;;;;;;;19.55;6.90;;;2.60;1.00;;;;;;5055055;28;20170;-78
2021/01/17 10:18:09;;;;;;;17.98;6.85;;;2.60;1.00;;;;;;5041236;28;20259;-75
2021/01/17 10:20:39;;;;;;;25.00;7.82;;;2.80;1.00;;;;;;5035470;28;20168;-72
2021/01/17 10:23:16;;;;;;;19.40;8.60;;;2.80;1.00;;;;;;5035689;28;20153;-74
2021/01/17 10:26:03;;;;;;;17.88;6.80;;;2.80;1.00;;;;;;5048712;28;20217;-73
2021/01/17 10:28:29;;;;;;;21.23;8.80;;;2.90;1.00;;;;;;5054966;28;20191;-72
2021/01/17 10:30:59;;;;;;;14.37;6.53;;;3.00;1.00;;;;;;5045990;28;20219;-72
2021/01/17 10:33:40;;;;;;;17.38;7.38;;;3.00;1.00;;;;;;5051077;28;20226;-73
2021/01/17 10:36:11;;;;;;;18.23;6.97;;;3.10;1.00;;;;;;5055207;28;20171;-75
2021/01/17 10:38:37;;;;;;;16.77;7.22;;;3.90;1.00;;;;;;5055085;28;20164;-75
2021/01/17 10:41:04;;;;;;;18.20;8.63;;;;;;;;;;5044684;28;20176;-75
2021/01/17 10:43:46;;;;;;;30.05;9.70;;;5.20;1.00;;;;;;5034886;28;20152;-75
2021/01/17 10:46:21;;;;;;;25.70;10.10;;;5.70;1.00;;;;;;5034956;28;20196;-75
2021/01/17 10:49:03;;;;;;;41.85;15.57;;;6.00;1.00;;;;;;5046372;28;20257;-76
2021/01/17 10:51:37;;;;;;;90.20;36.40;;;6.40;1.00;;;;;;5054299;28;20528;-74
2021/01/17 10:54:05;;;;;;;72.00;30.50;;;6.60;1.00;;;;;;5054945;28;20159;-74
2021/01/17 10:56:41;;;;;;;67.63;24.15;;;6.90;1.00;;;;;;5039006;28;20468;-74
2021/01/17 10:59:13;;;;;;;24.98;11.98;;;6.80;1.00;;;;;;5033512;28;20180;-75
2021/01/17 11:01:47;;;;;;;76.20;30.07;;;6.70;1.00;;;;;;5033914;28;20192;-76
2021/01/17 11:04:16;;;;;;;23.60;10.47;;;6.50;1.00;;;;;;5049522;28;20784;-76
2021/01/17 11:06:46;;;;;;;21.60;10.10;;;6.30;1.00;;;;;;5048954;28;20461;-75
2021/01/17 11:09:16;;;;;;;23.17;9.90;;;5.90;1.00;;;;;;5034175;28;20875;-75
2021/01/17 11:11:47;;;;;;;20.98;9.73;;;5.70;1.00;;;;;;5033870;28;20392;-75
2021/01/17 11:14:24;;;;;;;22.45;10.45;;;5.40;1.00;;;;;;5033851;28;20199;-75
2021/01/17 11:17:27;;;;;;;24.63;9.48;;;5.10;1.00;;;;;;5034511;28;20164;-76
2021/01/17 11:19:53;;;;;;;23.10;9.85;;;5.00;1.00;;;;;;5034888;28;20165;-76
2021/01/17 11:22:24;;;;;;;26.80;10.57;;;4.90;1.00;;;;;;5034715;28;20168;-76
2021/01/17 11:24:50;;;;;;;17.27;8.95;;;;;;;;;;5033945;28;20176;-76
2021/01/17 11:27:16;;;;;;;21.27;9.65;;;;;;;;;;5040596;28;20235;-76
2021/01/17 11:29:43;;;;;;;25.45;10.15;;;4.60;1.00;;;;;;5053406;28;20152;-76
2021/01/17 11:32:10;;;;;;;24.30;10.35;;;;;;;;;;5053190;28;20166;-78
2021/01/17 11:34:38;;;;;;;21.08;8.93;;;4.50;1.00;;;;;;5053496;28;20156;-78
2021/01/17 11:37:04;;;;;;;20.90;8.13;;;;;;;;;;5053393;28;20172;-78
2021/01/17 11:39:30;;;;;;;23.85;9.18;;;;;;;;;;5053506;28;20162;-78
2021/01/17 11:41:57;;;;;;;21.42;9.15;;;;;;;;;;5053276;28;20249;-78
2021/01/17 11:44:25;;;;;;;26.77;10.98;;;4.40;1.00;;;;;;5051855;28;20167;-78
2021/01/17 11:46:52;;;;;;;24.00;9.70;;;;;;;;;;5053104;28;20192;-78
2021/01/17 11:49:22;;;;;;;26.20;9.75;;;4.30;1.00;;;;;;5053023;28;20168;-78
2021/01/17 11:51:48;;;;;;;22.77;9.88;;;;;;;;;;5053231;28;20152;-78
2021/01/17 11:54:14;;;;;;;27.20;10.32;;;;;;;;;;5052957;28;20163;-78
2021/01/17 11:56:40;;;;;;;24.30;9.50;;;4.10;1.00;;;;;;5052682;28;20527;-78
2021/01/17 11:59:06;;;;;;;23.08;8.55;;;;;;;;;;5048766;28;20514;-78
2021/01/17 12:01:32;;;;;;;22.73;8.80;;;;;;;;;;5033073;28;20259;-78
2021/01/17 12:04:08;;;;;;;22.20;8.90;;;4.00;1.00;;;;;;5032945;28;20441;-78
2021/01/17 12:06:34;;;;;;;19.95;8.80;;;4.00;1.00;;;;;;5033252;28;20949;-76
2021/01/17 12:09:17;;;;;;;18.20;8.68;;;4.00;1.00;;;;;;5032982;28;20721;-76
2021/01/17 12:11:46;;;;;;;17.45;7.90;;;4.00;1.00;;;;;;5032817;28;20647;-76
2021/01/17 12:14:15;;;;;;;20.92;9.40;;;4.20;1.00;;;;;;5031605;28;20263;-78
2021/01/17 12:16:41;;;;;;;16.58;7.63;;;;;;;;;;5033094;28;20168;-78
2021/01/17 12:19:08;;;;;;;22.00;9.63;;;4.10;1.00;;;;;;5032837;28;20655;-78
2021/01/17 12:21:34;;;;;;;25.15;9.38;;;;;;;;;;5031907;28;20199;-78
2021/01/17 12:24:02;;;;;;;18.67;8.52;;;4.20;1.00;;;;;;5032773;28;20682;-78
2021/01/17 12:26:28;;;;;;;25.20;9.48;;;;;;;;;;5032628;28;20675;-78
2021/01/17 12:28:55;;;;;;;18.98;8.32;;;;;;;;;;5033608;28;20212;-78
2021/01/17 12:31:23;;;;;;;20.70;8.05;;;4.20;1.00;;;;;;5052991;28;20209;-78
2021/01/17 12:33:49;;;;;;;20.55;8.60;;;4.20;1.00;;;;;;5052492;28;20574;-78
2021/01/17 12:36:21;;;;;;;22.60;9.83;;;4.20;1.00;;;;;;5053060;28;20210;-78
2021/01/17 12:38:47;;;;;;;29.02;11.60;;;;;;;;;;5052832;28;20463;-78
2021/01/17 12:41:18;;;;;;;26.50;11.38;;;4.10;1.00;;;;;;5056850;28;20186;-78
2021/01/17 12:43:44;;;;;;;19.70;8.10;;;;;;;;;;5056464;28;20190;-77
2021/01/17 12:46:11;;;;;;;22.02;9.20;;;;;;;;;;5055277;28;20268;-77
2021/01/17 12:48:38;;;;;;;18.67;8.50;;;4.00;1.00;;;;;;5056482;28;20152;-78
2021/01/17 12:51:04;;;;;;;19.40;8.98;;;3.90;1.00;;;;;;5056681;28;20239;-76
2021/01/17 12:53:30;;;;;;;17.48;8.00;;;;;;;;;;5056458;28;20556;-76
2021/01/17 12:55:57;;;;;;;19.03;8.20;;;3.80;1.00;;;;;;5056311;28;20160;-76
2021/01/17 12:58:24;;;;;;;22.60;9.07;;;;;;;;;;5056139;28;20916;-75
2021/01/17 13:00:51;;;;;;;21.02;8.18;;;3.80;1.00;;;;;;5039027;28;20225;-76
2021/01/17 13:03:18;;;;;;;17.98;8.40;;;;;;;;;;5046163;28;20176;-73
2021/01/17 13:05:50;;;;;;;13.82;7.13;;;3.70;1.00;;;;;;5056305;28;20225;-76
2021/01/17 13:08:16;;;;;;;16.30;7.97;;;;;;;;;;5051868;28;20184;-74
2021/01/17 13:10:42;;;;;;;36.30;13.35;;;3.80;1.00;;;;;;5037236;28;20168;-75
2021/01/17 13:13:17;;;;;;;65.50;26.13;;;3.80;1.00;;;;;;5035568;28;20184;-76
2021/01/17 13:16:21;;;;;;;19.92;9.65;;;3.90;1.00;;;;;;5036880;28;20156;-77
2021/01/17 13:22:09;;;;;;;17.80;6.95;;;3.90;1.00;;;;;;5048853;28;20533;-74
2021/01/17 13:24:46;;;;;;;19.17;8.00;;;3.90;1.00;;;;;;5056765;28;20156;-73
2021/01/17 13:27:34;;;;;;;17.95;8.18;;;3.80;1.00;;;;;;5055806;28;20453;-80
2021/01/17 13:30:06;;;;;;;23.42;9.00;;;3.90;1.00;;;;;;5037006;28;20255;-80
2021/01/17 13:32:36;;;;;;;21.13;9.10;;;3.80;1.00;;;;;;5036238;28;20236;-72
2021/01/17 13:35:05;;;;;;;28.27;9.70;;;3.80;1.00;;;;;;5035978;28;20196;-72
2021/01/17 13:40:54;;;;;;;20.85;9.20;;;3.80;1.00;;;;;;5036270;28;20206;-76
2021/01/17 13:46:49;;;;;;;15.65;7.60;;;3.70;1.00;;;;;;5051252;28;20245;-76
2021/01/17 13:52:54;;;;;;;32.47;13.50;;;3.60;1.00;;;;;;5055962;28;20221;-76
2021/01/17 13:55:57;;;;;;;28.75;9.18;;;3.50;1.00;;;;;;5055962;28;20155;-76
2021/01/17 13:58:23;;;;;;;19.60;8.73;;;3.40;1.00;;;;;;5054062;28;20175;-79
2021/01/17 14:01:15;;;;;;;25.90;8.70;;;3.40;1.00;;;;;;5056188;28;20179;-78
2021/01/17 14:04:27;;;;;;;23.10;9.88;;;3.40;1.00;;;;;;5039450;28;20255;-85
2021/01/17 14:10:15;;;;;;;21.13;8.85;;;3.40;1.00;;;;;;5046149;28;20274;-78
2021/01/17 14:12:53;;;;;;;22.43;9.37;;;3.40;1.00;;;;;;5042806;28;20248;-78
2021/01/17 14:22:03;;;;;;;25.73;8.27;;;;;;;;;;5035687;28;20176;-72
2021/01/17 14:24:28;;;;;;;23.15;8.88;;;3.20;1.00;;;;;;5037247;28;20211;-74
2021/01/17 14:26:58;;;;;;;27.00;10.47;;;3.20;1.00;;;;;;5046684;28;20200;-74
2021/01/17 14:29:27;;;;;;;29.80;12.18;;;3.10;1.00;;;;;;5036015;28;20176;-74
2021/01/17 14:31:54;;;;;;;20.13;8.40;;;;;;;;;;5052082;28;20674;-74
2021/01/17 14:34:20;;;;;;;22.58;9.30;;;3.10;1.00;;;;;;5052181;28;20171;-74
2021/01/17 14:36:52;;;;;;;21.67;9.10;;;3.20;1.00;;;;;;5055330;28;20171;-74
2021/01/17 14:43:03;;;;;;;42.47;12.80;;;3.20;1.00;;;;;;5045473;28;20191;-77
2021/01/17 14:45:57;;;;;;;21.60;9.43;;;3.20;1.00;;;;;;5050361;28;20253;-77
2021/01/17 14:48:45;;;;;;;25.88;10.25;;;3.10;1.00;;;;;;5054841;28;20164;-78
2021/01/17 14:57:57;;;;;;;16.20;7.25;;;;;;;;;;5035081;28;20180;-77
2021/01/17 15:07:16;;;;;;;18.75;7.32;;;2.90;1.00;;;;;;5054905;28;20261;-74
2021/01/17 15:09:58;;;;;;;19.83;7.88;;;2.90;1.00;;;;;;5037661;28;20618;-74
2021/01/17 15:12:24;;;;;;;20.17;8.45;;;2.80;1.00;;;;;;5054452;28;20199;-74
2021/01/17 15:14:58;;;;;;;14.77;6.47;;;2.90;1.00;;;;;;5054550;28;20246;-75
2021/01/17 15:17:23;;;;;;;17.25;8.70;;;2.90;1.00;;;;;;5054558;28;20164;-74
2021/01/17 15:19:49;;;;;;;19.07;9.03;;;;;;;;;;5053389;28;20646;-75
2021/01/17 15:22:34;;;;;;;21.90;9.10;;;2.90;1.00;;;;;;5050073;28;20176;-76
2021/01/17 15:24:59;;;;;;;21.80;8.82;;;2.80;1.00;;;;;;5037192;28;20477;-75
2021/01/17 15:27:34;;;;;;;20.70;8.10;;;2.80;1.00;;;;;;5052803;28;20658;-74
2021/01/17 15:30:04;;;;;;;24.33;8.07;;;2.80;1.00;;;;;;5045037;28;20230;-75
2021/01/17 15:32:30;;;;;;;20.33;7.90;;;2.80;1.00;;;;;;5034242;28;20270;-74
2021/01/17 15:34:57;;;;;;;49.17;16.87;;;;;;;;;;5040080;28;20203;-75
2021/01/17 15:37:25;;;;;;;33.15;13.63;;;2.70;1.00;;;;;;5054214;28;20401;-75
2021/01/17 15:40:10;;;;;;;26.48;10.63;;;2.70;1.00;;;;;;5053919;28;20225;-77
2021/01/17 15:45:57;;;;;;;41.10;14.45;;;2.70;1.00;;;;;;5033558;28;20191;-77
2021/01/17 15:48:57;;;;;;;23.53;9.37;;;2.70;1.00;;;;;;5035063;28;20156;-78
2021/01/17 15:51:24;;;;;;;17.20;7.47;;;2.70;1.00;;;;;;5035039;28;20168;-78
2021/01/17 15:53:50;;;;;;;18.92;8.18;;;2.70;1.00;;;;;;5034146;28;20242;-78
2021/01/17 15:56:57;;;;;;;15.15;7.03;;;2.70;1.00;;;;;;5046976;28;20615;-77
2021/01/17 15:59:23;;;;;;;21.38;7.40;;;2.70;1.00;;;;;;5052057;28;20191;-79
2021/01/17 16:01:55;;;;;;;14.90;8.23;;;2.70;1.00;;;;;;5039796;28;20187;-78
2021/01/17 16:04:45;;;;;;;22.67;8.32;;;2.60;1.00;;;;;;5045198;28;20196;-77
2021/01/17 16:07:40;;;;;;;19.63;9.27;;;2.60;1.00;;;;;;5036488;28;20208;-77
2021/01/17 16:10:57;;;;;;;26.60;9.93;;;2.60;1.00;;;;;;5033905;28;20218;-77
2021/01/17 16:16:47;;;;;;;30.02;8.73;;;2.50;1.00;;;;;;5033861;28;20167;-77
2021/01/17 16:22:52;;;;;;;13.07;5.57;;;2.60;1.00;;;;;;5037864;28;20411;-81
2021/01/17 16:25:22;;;;;;;24.00;8.57;;;2.60;1.00;;;;;;5044655;28;20254;-75
2021/01/17 16:27:48;;;;;;;24.67;8.43;;;;;;;;;;5038462;28;20212;-74
2021/01/17 16:30:17;;;;;;;21.42;8.32;;;2.60;1.00;;;;;;5044861;28;20187;-72
2021/01/17 16:32:43;;;;;;;29.33;10.75;;;2.50;1.00;;;;;;5053379;28;20167;-73
2021/01/17 16:35:10;;;;;;;24.63;9.40;;;2.50;1.00;;;;;;5052450;28;20600;-73
2021/01/17 16:37:36;;;;;;;29.08;10.70;;;2.50;1.00;;;;;;5053172;28;20163;-73
2021/01/17 16:40:16;;;;;;;20.70;8.30;;;2.60;1.00;;;;;;5053694;28;20243;-79
2021/01/17 16:42:42;;;;;;;32.70;12.63;;;2.50;1.00;;;;;;5051154;28;20410;-73
2021/01/17 16:45:10;;;;;;;27.13;12.43;;;2.50;1.00;;;;;;5052555;28;20537;-72
2021/01/17 16:47:36;;;;;;;20.35;9.77;;;2.60;1.00;;;;;;5052867;28;20195;-73
2021/01/17 16:50:10;;;;;;;25.33;10.80;;;2.50;1.00;;;;;;5042054;28;20169;-78
2021/01/17 16:52:52;;;;;;;25.90;9.32;;;2.50;1.00;;;;;;5041526;28;20418;-78
2021/01/17 16:55:17;;;;;;;20.63;9.05;;;2.60;1.00;;;;;;5041706;28;20576;-76
2021/01/17 16:57:43;;;;;;;18.43;8.90;;;;;;;;;;5052118;28;20168;-76
2021/01/17 17:00:10;;;;;;;25.83;10.55;;;2.50;1.00;;;;;;5042061;28;20212;-75
2021/01/17 17:02:40;;;;;;;22.67;10.75;;;2.50;1.00;;;;;;5033234;28;20172;-75
2021/01/17 17:05:27;;;;;;;32.85;9.77;;;2.40;1.00;;;;;;5042434;28;20514;-82
2021/01/17 17:11:19;;;;;;;30.42;7.72;;;2.40;1.00;;;;;;5033138;28;20663;-82
2021/01/17 17:13:52;;;;;;;21.35;8.93;;;2.40;1.00;;;;;;5033593;28;20527;-83
2021/01/17 17:16:22;;;;;;;28.92;10.15;;;2.40;1.00;;;;;;5033226;28;20172;-82
2021/01/17 17:22:09;;;;;;;17.38;8.00;;;2.40;1.00;;;;;;5032881;28;20222;-83
2021/01/17 17:28:39;;;;;;;22.85;8.70;;;2.20;1.00;;;;;;5051838;28;20750;-80
2021/01/17 17:38:39;;;;;;;28.90;9.90;;;2.20;1.00;;;;;;5043950;28;20175;-79
2021/01/17 17:41:06;;;;;;;19.25;8.07;;;2.20;1.00;;;;;;5053796;28;20688;-74
2021/01/17 17:43:57;;;;;;;16.13;7.32;;;2.20;1.00;;;;;;5056267;28;20622;-75
2021/01/17 17:46:25;;;;;;;17.13;9.30;;;2.10;1.00;;;;;;5047991;28;20841;-77
2021/01/17 17:52:12;;;;;;;21.20;8.15;;;2.10;1.00;;;;;;5056279;28;20171;-78
2021/01/17 17:54:59;;;;;;;26.60;8.97;;;2.20;1.00;;;;;;5056225;28;20611;-79
2021/01/17 17:58:03;;;;;;;21.40;8.02;;;2.10;1.00;;;;;;5056127;28;20187;-79
2021/01/17 18:03:50;;;;;;;20.02;7.20;;;2.20;1.00;;;;;;5036131;28;20164;-79
2021/01/17 18:09:38;;;;;;;19.67;8.27;;;2.10;1.00;;;;;;5038781;28;20250;-79
2021/01/17 18:15:25;;;;;;;21.27;8.45;;;2.20;1.00;;;;;;5034324;28;20331;-79
2021/01/17 18:18:45;;;;;;;18.53;8.13;;;2.10;1.00;;;;;;5034513;28;20239;-79
2021/01/17 18:24:32;;;;;;;19.75;8.65;;;2.20;1.00;;;;;;5039609;28;20230;-77
2021/01/17 18:27:33;;;;;;;17.93;7.47;;;2.30;1.00;;;;;;5054267;28;20191;-77
2021/01/17 18:34:15;;;;;;;23.73;9.48;;;2.20;1.00;;;;;;5054562;28;20183;-78
2021/01/17 18:40:45;;;;;;;17.42;7.60;;;2.20;1.00;;;;;;5047100;28;20179;-78
2021/01/17 18:53:16;;;;;;;27.52;8.82;;;2.20;1.00;;;;;;5053950;28;20182;-78
2021/01/17 18:55:42;;;;;;;17.47;7.37;;;2.20;1.00;;;;;;5048951;28;20511;-72
2021/01/17 18:58:10;;;;;;;22.27;8.90;;;2.20;1.00;;;;;;5053709;28;20155;-72
2021/01/17 19:00:35;;;;;;;22.23;8.60;;;2.20;1.00;;;;;;5043323;28;20503;-72
2021/01/17 19:03:01;;;;;;;22.63;7.97;;;2.20;1.00;;;;;;5041957;28;20184;-72
2021/01/17 19:05:27;;;;;;;33.17;9.00;;;2.20;1.00;;;;;;5048146;28;20176;-72
2021/01/17 19:07:54;;;;;;;25.73;10.15;;;;;;;;;;5044533;28;20273;-72
2021/01/17 19:10:19;;;;;;;19.83;9.48;;;2.20;1.00;;;;;;5030653;28;581619;-73
2021/01/17 19:12:58;;;;;;;21.13;9.60;;;2.20;1.00;;;;;;5034531;28;20173;-75
2021/01/17 19:15:57;;;;;;;32.38;10.68;;;2.30;1.00;;;;;;5034365;28;20179;-75
2021/01/17 19:18:28;;;;;;;15.57;8.30;;;2.30;1.00;;;;;;5034539;28;20191;-74
2021/01/17 19:21:21;;;;;;;24.55;10.52;;;2.30;1.00;;;;;;5036487;28;20233;-75
2021/01/17 19:23:52;;;;;;;22.88;9.85;;;2.30;1.00;;;;;;5053879;28;20531;-73
2021/01/17 19:29:39;;;;;;;30.05;9.50;;;2.30;1.00;;;;;;5050698;28;20759;-78
2021/01/17 19:32:22;;;;;;;21.67;10.07;;;2.30;1.00;;;;;;5034157;28;20259;-79